< < Back
Terminal Aerodrome Forecast


Current Version              Previous Versions:   1  2  3  4  5  6  7  8  9  

Terminal Aerodrome Forecast

732
FTUS42 KTAE 261100
TAFABY
TAF
KABY 261120Z 2612/2712 29005KT P6SM FEW006 SCT080 BKN110
     FM261300 30010KT P6SM SKC
     FM262200 26005KT P6SM SKC=

Latest METAR

395
SAUS70 KWBC 271600 RRA
MTRABY
METAR KABY 271553Z 34015G19KT 10SM CLR 12/00 A3034 RMK AO2 SLP274
T01170000 $


USA.gov is the U.S. government's official web portal to all federal, state and local government web resources and services.